createdAt,value
2019-05-16T00:04:28.408Z,7.80
2019-05-16T00:09:52.862Z,7.70
2019-05-16T00:15:18.227Z,7.57
2019-05-16T00:20:42.732Z,7.47
2019-05-16T00:26:07.833Z,7.40
2019-05-16T00:31:31.687Z,7.37
2019-05-16T00:36:58.161Z,7.31
2019-05-16T00:42:22.642Z,7.25
2019-05-16T00:47:47.957Z,7.18
2019-05-16T00:53:12.161Z,7.16
2019-05-16T00:58:37.999Z,7.12
2019-05-16T01:04:02.305Z,7.12
2019-05-16T01:09:28.135Z,7.09
2019-05-16T01:14:51.533Z,7.10
2019-05-16T01:20:16.139Z,7.13
2019-05-16T01:25:40.933Z,7.13
2019-05-16T01:31:04.882Z,7.12
2019-05-16T01:36:36.678Z,7.10
2019-05-16T01:41:54.218Z,7.04
2019-05-16T01:47:18.789Z,6.88
2019-05-16T01:52:44.303Z,6.88
2019-05-16T01:58:08.680Z,6.89
2019-05-16T02:03:33.063Z,6.89
2019-05-16T02:08:57.930Z,7.01
2019-05-16T02:14:22.978Z,7.02
2019-05-16T02:19:48.575Z,7.05
2019-05-16T02:25:18.592Z,7.07
2019-05-16T02:30:42.348Z,7.09
2019-05-16T02:36:06.180Z,7.12
2019-05-16T02:41:31.170Z,7.14
2019-05-16T02:46:55.748Z,7.18
2019-05-16T02:52:21.733Z,7.20
2019-05-16T02:57:46.260Z,7.20
2019-05-16T03:03:11.996Z,7.19
2019-05-16T03:08:40.610Z,7.27
2019-05-16T03:14:04.864Z,7.30
2019-05-16T03:19:31.166Z,7.33
2019-05-16T03:24:56.023Z,7.36
2019-05-16T03:30:23.876Z,7.40
2019-05-16T03:35:45.812Z,7.46
2019-05-16T03:41:11.582Z,7.52
2019-05-16T03:46:37.368Z,7.60
2019-05-16T03:52:02.075Z,7.62
2019-05-16T03:57:26.742Z,7.64
2019-05-16T04:02:52.400Z,7.69
2019-05-16T04:08:22.055Z,7.72
2019-05-16T04:13:43.808Z,7.80
2019-05-16T04:19:11.510Z,7.89
2019-05-16T04:24:34.429Z,7.93
2019-05-16T04:30:01.415Z,7.96
2019-05-16T04:35:23.305Z,7.97
2019-05-16T04:40:51.314Z,7.99
2019-05-16T04:46:14.474Z,8.03
2019-05-16T04:51:41.245Z,8.03
2019-05-16T04:57:03.845Z,8.04
2019-05-16T05:02:30.956Z,8.09
2019-05-16T05:07:53.599Z,8.14
2019-05-16T05:13:17.144Z,8.16
2019-05-16T05:18:41.960Z,8.20
2019-05-16T05:24:06.571Z,8.23
2019-05-16T05:29:30.814Z,8.29
2019-05-16T05:34:55.218Z,8.33
2019-05-16T05:40:20.378Z,8.39
2019-05-16T05:45:45.212Z,8.49
2019-05-16T05:51:11.289Z,8.51
2019-05-16T05:56:34.433Z,8.58
2019-05-16T06:02:00.845Z,8.69
2019-05-16T06:07:24.835Z,8.79
2019-05-16T06:12:50.139Z,8.83
2019-05-16T06:18:14.641Z,8.92
2019-05-16T06:23:40.312Z,8.94
2019-05-16T06:29:05.421Z,8.99
2019-05-16T06:34:30.161Z,9.01
2019-05-16T06:39:54.275Z,8.97
2019-05-16T06:45:20.466Z,9.01
2019-05-16T06:50:45.749Z,9.09
2019-05-16T06:56:10.612Z,9.04
2019-05-16T07:01:35.955Z,9.06
2019-05-16T07:07:03.040Z,9.10
2019-05-16T07:12:26.994Z,9.11
2019-05-16T07:17:50.841Z,9.18
2019-05-16T07:23:15.880Z,9.21
2019-05-16T07:28:40.750Z,9.30
2019-05-16T07:34:04.452Z,9.42
2019-05-16T07:39:30.666Z,9.45
2019-05-16T07:44:55.176Z,9.43
2019-05-16T07:50:20.678Z,9.38
2019-05-16T07:55:44.637Z,9.32
2019-05-16T08:01:12.415Z,9.37
2019-05-16T08:06:34.483Z,9.29
2019-05-16T08:11:58.538Z,9.29
2019-05-16T08:17:23.177Z,9.32
2019-05-16T08:22:50.539Z,9.32
2019-05-16T08:28:13.210Z,9.31
2019-05-16T08:33:41.653Z,9.28
2019-05-16T08:39:06.589Z,9.32
2019-05-16T08:44:32.514Z,9.31
2019-05-16T08:49:57.267Z,9.37
2019-05-16T08:55:21.914Z,9.35
2019-05-16T09:00:45.504Z,9.41
2019-05-16T09:06:11.816Z,9.35
2019-05-16T09:11:44.109Z,9.56
2019-05-16T09:17:01.786Z,9.67
2019-05-16T09:22:28.252Z,9.67
2019-05-16T09:27:52.191Z,9.67
2019-05-16T09:33:17.631Z,9.61
2019-05-16T09:38:41.985Z,9.73
2019-05-16T09:44:08.663Z,9.76
2019-05-16T09:49:33.230Z,9.85
2019-05-16T09:54:57.945Z,10.00
2019-05-16T10:00:26.716Z,10.06
2019-05-16T10:05:49.563Z,9.94
2019-05-16T10:11:13.665Z,9.80
2019-05-16T10:16:37.636Z,9.72
2019-05-16T10:22:02.318Z,9.86
2019-05-16T10:27:26.635Z,10.21
2019-05-16T10:32:50.412Z,10.73
2019-05-16T10:38:15.076Z,11.19
2019-05-16T10:43:38.716Z,11.20
2019-05-16T10:49:04.274Z,10.81
2019-05-16T10:54:28.016Z,10.62
2019-05-16T11:00:05.185Z,10.60
2019-05-16T11:05:29.382Z,10.88
2019-05-16T11:10:42.890Z,10.97
2019-05-16T11:16:07.022Z,10.93
2019-05-16T11:21:32.012Z,10.97
2019-05-16T11:26:56.809Z,11.04
2019-05-16T11:32:21.693Z,11.05
2019-05-16T11:37:47.349Z,10.89
2019-05-16T11:43:18.240Z,11.08
2019-05-16T11:48:38.578Z,11.76
2019-05-16T11:54:03.069Z,12.45
2019-05-16T11:59:27.659Z,12.55
2019-05-16T12:04:51.927Z,12.40
2019-05-16T12:10:17.104Z,12.09
2019-05-16T12:15:40.763Z,12.11
2019-05-16T12:21:07.312Z,12.07
2019-05-16T12:26:30.642Z,12.37
2019-05-16T12:31:59.641Z,12.28
2019-05-16T12:37:20.203Z,12.01
2019-05-16T12:42:46.981Z,12.10
2019-05-16T12:48:11.571Z,12.09
2019-05-16T12:53:36.721Z,12.10
2019-05-16T12:59:00.736Z,12.06
2019-05-16T13:04:27.676Z,11.97
2019-05-16T13:09:50.372Z,11.75
2019-05-16T13:15:14.596Z,11.58
2019-05-16T13:20:41.254Z,11.48
2019-05-16T13:26:06.699Z,11.56
2019-05-16T13:31:29.562Z,11.68
2019-05-16T13:36:54.126Z,11.55
2019-05-16T13:42:19.601Z,11.70
2019-05-16T13:47:44.257Z,11.77
2019-05-16T13:53:08.584Z,11.75
2019-05-16T13:58:33.270Z,11.64
2019-05-16T14:03:57.434Z,11.59
2019-05-16T14:09:21.282Z,11.56
2019-05-16T14:14:47.863Z,11.55
2019-05-16T14:20:15.051Z,11.48
2019-05-16T14:25:39.750Z,11.54
2019-05-16T14:31:07.005Z,11.51
2019-05-16T14:36:29.755Z,11.52
2019-05-16T14:41:56.446Z,11.48
2019-05-16T14:47:19.476Z,11.55
2019-05-16T14:52:43.170Z,11.63
2019-05-16T14:58:07.703Z,11.69
2019-05-16T15:03:32.048Z,11.88
2019-05-16T15:08:56.813Z,11.82
2019-05-16T15:14:22.376Z,11.94
2019-05-16T15:19:46.757Z,12.00
2019-05-16T15:25:11.110Z,12.23
2019-05-16T15:30:39.126Z,12.29
2019-05-16T15:36:00.767Z,12.05
2019-05-16T15:41:27.165Z,11.94
2019-05-16T15:46:51.510Z,11.88
2019-05-16T15:52:16.994Z,11.79
2019-05-16T15:57:41.398Z,11.83
2019-05-16T16:03:06.978Z,11.90
2019-05-16T16:08:31.227Z,11.86
2019-05-16T16:13:57.532Z,11.90
2019-05-16T16:19:22.553Z,11.73
2019-05-16T16:24:47.866Z,11.63
2019-05-16T16:30:12.797Z,11.66
2019-05-16T16:35:37.890Z,11.79
2019-05-16T16:41:02.898Z,11.90
2019-05-16T16:46:27.438Z,11.95
2019-05-16T16:51:51.148Z,11.91
2019-05-16T16:57:17.737Z,11.97
2019-05-16T17:02:42.035Z,11.97
2019-05-16T17:08:07.633Z,11.94
2019-05-16T17:13:31.613Z,11.86
2019-05-16T17:18:56.865Z,11.80
2019-05-16T17:24:21.293Z,11.77
2019-05-16T17:29:47.329Z,11.73
2019-05-16T17:35:10.931Z,11.63
2019-05-16T17:40:38.102Z,11.56
2019-05-16T17:46:01.674Z,11.48
2019-05-16T17:51:26.244Z,11.48
2019-05-16T17:56:50.688Z,11.43
2019-05-16T18:02:17.261Z,11.41
2019-05-16T18:07:41.214Z,11.40
2019-05-16T18:13:07.443Z,11.33
2019-05-16T18:18:30.695Z,11.29
2019-05-16T18:23:55.524Z,11.25
2019-05-16T18:29:21.148Z,11.17
2019-05-16T18:34:45.648Z,11.19
2019-05-16T18:40:09.936Z,11.15
2019-05-16T18:45:36.510Z,11.15
2019-05-16T18:50:59.696Z,11.15
2019-05-16T18:56:27.033Z,11.10
2019-05-16T19:01:50.028Z,11.02
2019-05-16T19:07:13.940Z,10.98
2019-05-16T19:12:38.046Z,10.98
2019-05-16T19:18:02.335Z,10.98
2019-05-16T19:23:26.962Z,10.95
2019-05-16T19:28:51.515Z,10.94
2019-05-16T19:34:16.284Z,10.95
2019-05-16T19:39:40.051Z,10.92
2019-05-16T19:45:05.422Z,10.92
2019-05-16T19:50:30.293Z,10.90
2019-05-16T19:55:56.594Z,10.83
2019-05-16T20:01:21.030Z,10.81
2019-05-16T20:06:47.510Z,10.62
2019-05-16T20:12:11.131Z,10.32
2019-05-16T20:17:37.762Z,10.00
2019-05-16T20:23:00.740Z,9.66
2019-05-16T20:28:26.691Z,9.39
2019-05-16T20:33:50.733Z,9.19
2019-05-16T20:39:17.233Z,8.94
2019-05-16T20:44:41.417Z,8.75
2019-05-16T20:50:07.651Z,8.58
2019-05-16T20:55:32.897Z,8.51
2019-05-16T21:01:01.290Z,8.36
2019-05-16T21:06:23.853Z,8.19
2019-05-16T21:11:50.077Z,8.21
2019-05-16T21:17:17.430Z,8.07
2019-05-16T21:22:41.651Z,7.81
2019-05-16T21:28:07.949Z,7.55
2019-05-16T21:33:32.904Z,7.45
2019-05-16T21:38:57.480Z,7.38
2019-05-16T21:44:23.112Z,7.14
2019-05-16T21:49:47.872Z,7.01
2019-05-16T21:55:12.407Z,6.82
2019-05-16T22:00:47.507Z,6.69
2019-05-16T22:06:11.265Z,6.55
2019-05-16T22:11:37.070Z,6.37
2019-05-16T22:17:01.259Z,6.32
2019-05-16T22:22:29.758Z,6.24
2019-05-16T22:27:51.693Z,6.10
2019-05-16T22:33:17.943Z,6.16
2019-05-16T22:38:42.431Z,6.03
2019-05-16T22:44:08.854Z,5.98
2019-05-16T22:49:32.643Z,6.04
2019-05-16T22:54:58.280Z,5.99
2019-05-16T23:00:26.806Z,6.02
2019-05-16T23:05:50.852Z,6.05
2019-05-16T23:11:16.369Z,6.06
2019-05-16T23:16:39.971Z,5.95
2019-05-16T23:22:07.496Z,5.78
2019-05-16T23:27:31.737Z,5.76
2019-05-16T23:32:56.319Z,5.73
2019-05-16T23:38:20.304Z,5.71
2019-05-16T23:43:46.774Z,5.79
2019-05-16T23:49:10.312Z,6.03
2019-05-16T23:54:34.194Z,6.09
2019-05-16T23:59:59.044Z,6.16
